Pagrindinis puslapis
METAR-TAF:

METAR-TAF

Oro uostai :

Dübendorf, Šveicarija

platuma: 47-23-55N, ilguma: 8-38-53E, Aukštis: 448 m

Dabartinis oras

Ataskaita buvo paskelbta 39 minutes, ne 20:50 UTC
Vėjas 3 kt iš Rytų/Pietryčių, svyruoja nuo Rytų ir Pietų/Pietryčių
Temperatūra 5°C
Drėgmė 87%
Slėgis 1014 hPa
Matomumas 10 km arba daugiau

METAR: LSMD 272050Z AUTO 12003KT 100V160 9999NDV NCD 05/03 Q1014 RMK

Laikas: 22:29 (21:29 UTC)


TAF: trūkstamas

Orai ataskaitas ir orų prognozės (METAR, TAF).

turimą stotys yra geltonos ir raudonos taškus žemėlapyje.

Perkelti pele per norėdami pamatyti stoties vardą.

Tada spustelėkite, norėdami matyti oro stebėjimo ir prognozės.

Norėdami pakeisti žemėlapį: spustelėkite ant žalios mygtukų su juodo kryžiaus žemyn,; žalią mygtuką su brūkšneliu, jei norite nutolinti; arba žalių rodyklių gretimoms žemėlapius.


METAR-TAF: